createdAt,value
2022-10-04T00:02:20.150Z,2.83
2022-10-04T00:04:54.733Z,2.77
2022-10-04T00:07:26.210Z,2.74
2022-10-04T00:09:57.314Z,2.69
2022-10-04T00:12:27.682Z,2.73
2022-10-04T00:14:58.551Z,2.75
2022-10-04T00:17:29.241Z,2.77
2022-10-04T00:19:59.562Z,2.70
2022-10-04T00:22:29.664Z,2.68
2022-10-04T00:25:21.972Z,2.58
2022-10-04T00:28:29.991Z,2.52
2022-10-04T00:31:24.878Z,2.65
2022-10-04T00:33:55.587Z,2.62
2022-10-04T00:36:40.633Z,2.57
2022-10-04T00:39:40.460Z,2.49
2022-10-04T00:42:21.892Z,2.58
2022-10-04T00:44:53.222Z,2.60
2022-10-04T00:47:31.372Z,2.58
2022-10-04T00:50:05.312Z,2.50
2022-10-04T00:52:37.165Z,2.48
2022-10-04T00:55:08.796Z,2.35
2022-10-04T00:57:41.751Z,2.40
2022-10-04T01:00:13.865Z,2.40
2022-10-04T01:02:51.110Z,2.40
2022-10-04T01:05:22.200Z,2.36
2022-10-04T01:07:55.087Z,2.39
2022-10-04T01:10:26.883Z,2.47
2022-10-04T01:13:00.407Z,2.52
2022-10-04T01:16:24.737Z,2.56
2022-10-04T01:18:53.647Z,2.53
2022-10-04T01:21:30.320Z,2.59
2022-10-04T01:24:24.460Z,2.67
2022-10-04T01:26:52.857Z,2.71
2022-10-04T01:29:26.897Z,2.76
2022-10-04T01:31:56.783Z,2.73
2022-10-04T01:34:26.338Z,2.82
2022-10-04T01:36:56.288Z,2.79
2022-10-04T01:39:27.638Z,2.72
2022-10-04T01:41:58.576Z,2.66
2022-10-04T01:44:31.752Z,2.60
2022-10-04T01:47:03.139Z,2.48
2022-10-04T01:49:33.889Z,2.37
2022-10-04T01:52:05.817Z,2.33
2022-10-04T01:54:38.337Z,2.24
2022-10-04T01:57:12.607Z,2.26
2022-10-04T01:59:44.837Z,2.15
2022-10-04T02:02:22.557Z,2.13
2022-10-04T02:04:54.151Z,2.17
2022-10-04T02:07:23.287Z,2.14
2022-10-04T02:09:59.867Z,2.10
2022-10-04T02:12:31.553Z,2.16
2022-10-04T02:15:02.079Z,2.17
2022-10-04T02:17:32.520Z,2.16
2022-10-04T02:20:02.014Z,2.27
2022-10-04T02:22:30.433Z,2.37
2022-10-04T02:25:00.778Z,2.33
2022-10-04T02:27:31.480Z,2.38
2022-10-04T02:30:04.007Z,2.37
2022-10-04T02:32:50.877Z,2.28
2022-10-04T02:35:20.089Z,2.29
2022-10-04T02:37:50.247Z,2.29
2022-10-04T02:40:21.539Z,2.29
2022-10-04T02:42:51.799Z,2.26
2022-10-04T02:45:23.697Z,2.20
2022-10-04T02:47:54.697Z,2.14
2022-10-04T02:50:29.839Z,2.10
2022-10-04T02:53:01.122Z,2.03
2022-10-04T02:55:32.072Z,2.30
2022-10-04T02:58:01.420Z,2.34
2022-10-04T03:00:31.164Z,2.33
2022-10-04T03:03:17.547Z,2.31
2022-10-04T03:05:47.599Z,2.30
2022-10-04T03:08:16.178Z,2.47
2022-10-04T03:10:46.410Z,2.40
2022-10-04T03:13:16.314Z,2.40
2022-10-04T03:15:45.113Z,2.23
2022-10-04T03:18:13.637Z,2.22
2022-10-04T03:20:42.228Z,2.06
2022-10-04T03:23:11.718Z,2.06
2022-10-04T03:25:47.633Z,2.15
2022-10-04T03:28:16.322Z,2.24
2022-10-04T03:30:45.684Z,2.28
2022-10-04T03:33:22.507Z,2.27
2022-10-04T03:35:55.146Z,2.43
2022-10-04T03:38:24.530Z,2.43
2022-10-04T03:40:57.527Z,2.39
2022-10-04T03:43:27.566Z,2.37
2022-10-04T03:45:58.296Z,2.30
2022-10-04T03:48:32.937Z,2.22
2022-10-04T03:51:02.207Z,2.27
2022-10-04T03:53:35.639Z,2.28
2022-10-04T03:56:11.477Z,2.24
2022-10-04T03:58:39.897Z,2.19
2022-10-04T04:01:17.065Z,2.30
2022-10-04T04:03:55.419Z,2.35
2022-10-04T04:06:24.439Z,2.35
2022-10-04T04:08:54.880Z,2.26
2022-10-04T04:11:26.711Z,2.36
2022-10-04T04:14:04.421Z,2.40
2022-10-04T04:16:32.956Z,2.44
2022-10-04T04:19:03.623Z,2.48
2022-10-04T04:21:32.631Z,2.55
2022-10-04T04:24:03.730Z,2.46
2022-10-04T04:26:39.444Z,2.49
2022-10-04T04:29:11.261Z,2.57
2022-10-04T04:31:44.061Z,2.62
2022-10-04T04:34:19.001Z,2.54
2022-10-04T04:36:47.552Z,2.62
2022-10-04T04:39:37.530Z,2.66
2022-10-04T04:42:14.516Z,2.69
2022-10-04T04:44:48.518Z,2.72
2022-10-04T04:47:28.113Z,2.70
2022-10-04T04:49:58.188Z,2.67
2022-10-04T04:52:28.772Z,2.72
2022-10-04T04:54:57.362Z,2.75
2022-10-04T04:57:27.384Z,2.77
2022-10-04T04:59:58.454Z,2.86
2022-10-04T05:02:31.561Z,2.82
2022-10-04T05:05:23.314Z,2.85
2022-10-04T05:07:52.751Z,2.85
2022-10-04T05:10:23.154Z,2.87
2022-10-04T05:12:52.840Z,2.90
2022-10-04T05:15:21.163Z,2.94
2022-10-04T05:17:49.402Z,2.99
2022-10-04T05:20:17.659Z,3.01
2022-10-04T05:22:49.838Z,3.03
2022-10-04T05:25:23.031Z,2.98
2022-10-04T05:27:52.857Z,2.98
2022-10-04T05:30:34.694Z,3.14
2022-10-04T05:33:05.260Z,3.19
2022-10-04T05:35:46.798Z,3.17
2022-10-04T05:38:21.429Z,3.27
2022-10-04T05:40:53.551Z,3.31
2022-10-04T05:43:27.552Z,3.37
2022-10-04T05:46:26.001Z,3.41
2022-10-04T05:48:56.220Z,3.53
2022-10-04T05:51:26.014Z,3.66
2022-10-04T05:53:54.450Z,3.71
2022-10-04T05:56:49.100Z,3.73
2022-10-04T05:59:31.810Z,3.76
2022-10-04T06:02:11.107Z,3.88
2022-10-04T06:04:48.704Z,3.89
2022-10-04T06:07:22.001Z,3.79
2022-10-04T06:09:59.570Z,3.84
2022-10-04T06:12:44.400Z,3.96
2022-10-04T06:15:41.530Z,4.15
2022-10-04T06:18:30.320Z,4.24
2022-10-04T06:21:18.561Z,4.19
2022-10-04T06:23:52.440Z,4.34
2022-10-04T06:26:25.339Z,4.45
2022-10-04T06:28:57.082Z,4.56
2022-10-04T06:31:58.730Z,4.71
2022-10-04T06:34:52.102Z,4.79
2022-10-04T06:37:33.514Z,4.80
2022-10-04T06:40:18.821Z,4.81
2022-10-04T06:43:14.700Z,5.03
2022-10-04T06:45:54.423Z,5.12
2022-10-04T06:48:57.604Z,5.22
2022-10-04T06:51:38.471Z,5.36
2022-10-04T06:54:18.998Z,5.39
2022-10-04T06:56:58.840Z,5.43
2022-10-04T06:59:45.316Z,5.61
2022-10-04T07:02:16.349Z,5.67
2022-10-04T07:05:07.497Z,5.66
2022-10-04T07:07:37.937Z,5.55
2022-10-04T07:10:25.274Z,5.60
2022-10-04T07:12:58.661Z,5.71
2022-10-04T07:15:33.037Z,5.72
2022-10-04T07:18:06.315Z,5.80
2022-10-04T07:20:37.471Z,5.93
2022-10-04T07:23:09.423Z,6.04
2022-10-04T07:25:43.983Z,6.15
2022-10-04T07:28:34.524Z,6.37
2022-10-04T07:31:05.612Z,6.70
2022-10-04T07:33:36.992Z,6.65
2022-10-04T07:36:09.542Z,6.78
2022-10-04T07:38:41.023Z,6.96
2022-10-04T07:41:11.330Z,7.05
2022-10-04T07:43:49.963Z,7.32
2022-10-04T07:46:23.626Z,7.35
2022-10-04T07:48:51.920Z,7.52
2022-10-04T07:51:31.779Z,7.56
2022-10-04T07:54:03.124Z,7.67
2022-10-04T07:56:37.081Z,7.64
2022-10-04T07:59:16.070Z,7.68
2022-10-04T08:01:48.493Z,7.88
2022-10-04T08:04:31.160Z,8.13
2022-10-04T08:07:02.769Z,8.19
2022-10-04T08:09:42.875Z,8.46
2022-10-04T08:12:20.032Z,8.64
2022-10-04T08:14:55.907Z,8.58
2022-10-04T08:17:33.161Z,8.75
2022-10-04T08:20:09.748Z,8.84
2022-10-04T08:22:51.870Z,8.95
2022-10-04T08:25:23.261Z,8.82
2022-10-04T08:28:14.138Z,9.01
2022-10-04T08:30:53.855Z,9.08
2022-10-04T08:33:29.591Z,9.29
2022-10-04T08:36:04.581Z,9.40
2022-10-04T08:38:44.432Z,9.55
2022-10-04T08:41:32.980Z,9.59
2022-10-04T08:44:32.515Z,9.79
2022-10-04T08:47:34.724Z,10.08
2022-10-04T08:50:20.631Z,10.31
2022-10-04T08:53:13.762Z,10.28
2022-10-04T08:55:51.878Z,10.41
2022-10-04T08:58:34.379Z,10.44
2022-10-04T09:01:14.640Z,10.54
2022-10-04T09:04:11.714Z,10.61
2022-10-04T09:06:56.470Z,10.79
2022-10-04T09:09:58.461Z,10.57
2022-10-04T09:12:51.349Z,10.49
2022-10-04T09:15:27.772Z,10.63
2022-10-04T09:17:57.820Z,10.83
2022-10-04T09:20:39.414Z,10.86
2022-10-04T09:23:18.122Z,10.83
2022-10-04T09:25:52.434Z,10.71
2022-10-04T09:29:03.913Z,11.29
2022-10-04T09:32:09.491Z,11.68
2022-10-04T09:34:52.060Z,12.02
2022-10-04T09:37:32.550Z,12.07
2022-10-04T09:40:47.297Z,12.37
2022-10-04T09:43:55.771Z,12.39
2022-10-04T09:46:41.071Z,12.41
2022-10-04T09:49:19.020Z,12.51
2022-10-04T09:52:09.160Z,12.49
2022-10-04T09:54:56.979Z,12.61
2022-10-04T09:57:31.853Z,12.67
2022-10-04T10:00:09.884Z,12.82
2022-10-04T10:03:15.802Z,12.72
2022-10-04T10:06:20.803Z,12.92
2022-10-04T10:09:01.980Z,13.12
2022-10-04T10:11:56.726Z,13.23
2022-10-04T10:14:55.880Z,13.27
2022-10-04T10:17:38.071Z,13.41
2022-10-04T10:20:34.510Z,13.44
2022-10-04T10:23:30.529Z,13.64
2022-10-04T10:26:24.374Z,13.84
2022-10-04T10:29:28.499Z,13.96
2022-10-04T10:32:21.948Z,14.16
2022-10-04T10:35:13.140Z,14.51
2022-10-04T10:37:51.373Z,14.43
2022-10-04T10:40:41.131Z,14.27
2022-10-04T10:43:23.791Z,14.05
2022-10-04T10:46:05.810Z,14.17
2022-10-04T10:48:49.500Z,14.08
2022-10-04T10:51:20.721Z,14.15
2022-10-04T10:54:30.320Z,14.46
2022-10-04T10:57:08.438Z,14.76
2022-10-04T11:00:07.360Z,14.92
2022-10-04T11:03:23.947Z,15.21
2022-10-04T11:06:15.422Z,15.28
2022-10-04T11:09:34.791Z,15.33
2022-10-04T11:12:40.161Z,15.30
2022-10-04T11:15:41.101Z,14.97
2022-10-04T11:18:35.611Z,14.69
2022-10-04T11:21:25.912Z,14.64
2022-10-04T11:24:30.250Z,14.59
2022-10-04T11:27:29.240Z,14.56
2022-10-04T11:30:17.154Z,14.50
2022-10-04T11:33:18.542Z,14.62
2022-10-04T11:36:19.864Z,14.52
2022-10-04T11:39:03.891Z,14.36
2022-10-04T11:41:44.681Z,14.31
2022-10-04T11:44:44.295Z,14.45
2022-10-04T11:47:37.102Z,14.37
2022-10-04T11:50:21.381Z,14.55
2022-10-04T11:53:27.361Z,14.51
2022-10-04T11:56:30.041Z,14.31
2022-10-04T11:59:08.772Z,14.15
2022-10-04T12:02:09.503Z,14.29
2022-10-04T12:05:00.875Z,14.28
2022-10-04T12:07:52.082Z,14.33
2022-10-04T12:10:24.952Z,14.39
2022-10-04T12:13:07.793Z,14.43
2022-10-04T12:16:18.296Z,14.53
2022-10-04T12:19:15.641Z,14.62
2022-10-04T12:21:58.502Z,14.53
2022-10-04T12:25:09.483Z,14.67
2022-10-04T12:28:01.560Z,14.76
2022-10-04T12:30:42.363Z,15.02
2022-10-04T12:33:18.040Z,14.88
2022-10-04T12:35:57.552Z,14.92
2022-10-04T12:38:40.526Z,14.92
2022-10-04T12:41:17.861Z,15.11
2022-10-04T12:43:52.671Z,16.12
2022-10-04T12:46:29.651Z,18.57
2022-10-04T12:49:18.091Z,20.97
2022-10-04T12:51:53.150Z,22.52
2022-10-04T12:54:36.216Z,23.41
2022-10-04T12:57:29.820Z,24.01
2022-10-04T13:00:04.554Z,25.49
2022-10-04T13:02:48.110Z,24.97
2022-10-04T13:05:22.643Z,26.32
2022-10-04T13:08:09.050Z,26.93
2022-10-04T13:10:59.331Z,27.10
2022-10-04T13:13:59.821Z,26.74
2022-10-04T13:19:30.371Z,27.30
2022-10-04T13:25:42.171Z,27.84
2022-10-04T13:28:20.797Z,28.64
2022-10-04T13:30:55.621Z,29.30
2022-10-04T13:33:27.631Z,28.35
2022-10-04T13:36:00.899Z,29.16
2022-10-04T13:38:55.694Z,29.98
2022-10-04T13:41:32.546Z,29.85
2022-10-04T13:44:18.009Z,30.35
2022-10-04T13:47:06.708Z,30.94
2022-10-04T13:49:44.294Z,30.55
2022-10-04T13:52:51.896Z,30.04
2022-10-04T13:55:42.655Z,30.16
2022-10-04T13:58:22.766Z,29.43
2022-10-04T14:01:02.628Z,29.36
2022-10-04T14:03:43.020Z,30.15
2022-10-04T14:06:46.976Z,29.11
2022-10-04T14:09:46.297Z,29.64
2022-10-04T14:12:41.787Z,29.89
2022-10-04T14:15:45.396Z,29.46
2022-10-04T14:18:37.806Z,29.39
2022-10-04T14:21:26.396Z,29.54
2022-10-04T14:24:28.880Z,29.44
2022-10-04T14:27:12.211Z,30.00
2022-10-04T14:30:04.747Z,30.32
2022-10-04T14:32:57.596Z,30.03
2022-10-04T14:35:28.119Z,30.08
2022-10-04T14:38:27.816Z,29.33
2022-10-04T14:41:45.322Z,29.53
2022-10-04T14:44:45.304Z,28.88
2022-10-04T14:47:30.026Z,28.26
2022-10-04T14:50:09.806Z,28.37
2022-10-04T14:52:44.939Z,29.18
2022-10-04T14:55:31.326Z,29.43
2022-10-04T14:58:16.348Z,29.07
2022-10-04T15:01:04.438Z,28.44
2022-10-04T15:03:39.140Z,28.28
2022-10-04T15:06:13.589Z,25.65
2022-10-04T15:09:18.950Z,22.59
2022-10-04T15:12:25.535Z,20.31
2022-10-04T15:15:01.362Z,18.33
2022-10-04T15:17:34.839Z,17.32
2022-10-04T15:20:08.299Z,16.55
2022-10-04T15:22:43.092Z,15.82
2022-10-04T15:25:40.385Z,15.41
2022-10-04T15:28:28.254Z,15.05
2022-10-04T15:31:00.693Z,14.72
2022-10-04T15:33:37.880Z,14.48
2022-10-04T15:36:25.708Z,14.39
2022-10-04T15:39:02.759Z,14.04
2022-10-04T15:41:36.784Z,13.81
2022-10-04T15:44:33.359Z,13.62
2022-10-04T15:47:11.240Z,13.56
2022-10-04T15:49:52.912Z,13.34
2022-10-04T15:52:49.359Z,13.22
2022-10-04T15:55:31.489Z,13.15
2022-10-04T15:58:21.577Z,12.98
2022-10-04T16:00:58.941Z,12.80
2022-10-04T16:03:36.383Z,12.73
2022-10-04T16:06:07.589Z,12.68
2022-10-04T16:08:47.308Z,12.60
2022-10-04T16:11:38.563Z,12.56
2022-10-04T16:14:24.833Z,12.33
2022-10-04T16:17:04.442Z,12.22
2022-10-04T16:19:45.533Z,12.06
2022-10-04T16:22:16.470Z,11.95
2022-10-04T16:24:51.485Z,11.81
2022-10-04T16:27:47.960Z,11.77
2022-10-04T16:30:34.709Z,11.61
2022-10-04T16:33:26.087Z,11.43
2022-10-04T16:36:06.793Z,11.28
2022-10-04T16:38:58.089Z,11.14
2022-10-04T16:41:35.749Z,10.93
2022-10-04T16:44:05.118Z,10.72
2022-10-04T16:46:38.744Z,10.50
2022-10-04T16:49:23.725Z,10.17
2022-10-04T16:52:16.279Z,9.96
2022-10-04T16:55:11.679Z,9.79
2022-10-04T16:57:43.539Z,9.66
2022-10-04T17:00:41.922Z,9.55
2022-10-04T17:03:19.951Z,9.45
2022-10-04T17:05:59.829Z,9.27
2022-10-04T17:08:50.068Z,9.10
2022-10-04T17:11:45.449Z,8.95
2022-10-04T17:14:48.470Z,8.87
2022-10-04T17:17:24.749Z,8.77
2022-10-04T17:19:57.620Z,8.73
2022-10-04T17:22:34.278Z,8.66
2022-10-04T17:25:10.375Z,8.59
2022-10-04T17:27:51.883Z,8.44
2022-10-04T17:30:22.882Z,8.33
2022-10-04T17:33:06.732Z,8.24
2022-10-04T17:36:17.157Z,8.11
2022-10-04T17:38:53.372Z,8.05
2022-10-04T17:41:29.389Z,8.06
2022-10-04T17:44:21.765Z,8.10
2022-10-04T17:46:54.591Z,8.04
2022-10-04T17:49:45.649Z,7.91
2022-10-04T17:52:43.749Z,7.79
2022-10-04T17:55:20.093Z,7.80
2022-10-04T17:57:52.854Z,7.80
2022-10-04T18:00:24.224Z,7.71
2022-10-04T18:03:10.940Z,7.58
2022-10-04T18:05:49.329Z,7.53
2022-10-04T18:08:21.657Z,7.43
2022-10-04T18:10:53.039Z,7.32
2022-10-04T18:13:28.840Z,7.22
2022-10-04T18:16:02.192Z,7.33
2022-10-04T18:18:32.350Z,7.19
2022-10-04T18:21:07.562Z,7.33
2022-10-04T18:23:39.557Z,7.22
2022-10-04T18:26:17.736Z,7.10
2022-10-04T18:28:47.587Z,7.02
2022-10-04T18:31:31.490Z,6.88
2022-10-04T18:34:05.147Z,6.84
2022-10-04T18:36:51.582Z,6.81
2022-10-04T18:39:22.053Z,6.89
2022-10-04T18:42:02.764Z,6.90
2022-10-04T18:44:44.190Z,6.90
2022-10-04T18:47:18.533Z,6.74
2022-10-04T18:49:51.219Z,6.63
2022-10-04T18:52:29.253Z,6.62
2022-10-04T18:55:05.329Z,6.63
2022-10-04T18:57:59.567Z,6.59
2022-10-04T19:00:48.306Z,6.49
2022-10-04T19:03:22.567Z,6.49
2022-10-04T19:05:53.142Z,6.44
2022-10-04T19:08:35.166Z,6.49
2022-10-04T19:11:05.948Z,6.52
2022-10-04T19:13:41.445Z,6.47
2022-10-04T19:16:18.899Z,6.42
2022-10-04T19:19:16.589Z,6.35
2022-10-04T19:21:47.949Z,6.29
2022-10-04T19:24:48.780Z,6.27
2022-10-04T19:27:22.909Z,6.20
2022-10-04T19:30:03.230Z,6.11
2022-10-04T19:32:39.882Z,5.98
2022-10-04T19:35:19.133Z,5.92
2022-10-04T19:37:50.629Z,5.87
2022-10-04T19:40:23.609Z,5.78
2022-10-04T19:42:58.609Z,5.72
2022-10-04T19:45:34.412Z,5.73
2022-10-04T19:48:08.249Z,5.74
2022-10-04T19:50:38.283Z,5.75
2022-10-04T19:53:09.249Z,5.72
2022-10-04T19:55:45.380Z,5.77
2022-10-04T19:58:28.769Z,5.74
2022-10-04T20:00:58.521Z,5.77
2022-10-04T20:03:26.889Z,5.64
2022-10-04T20:05:55.942Z,5.69
2022-10-04T20:08:46.857Z,5.63
2022-10-04T20:11:18.530Z,5.53
2022-10-04T20:13:46.846Z,5.49
2022-10-04T20:16:54.673Z,5.47
2022-10-04T20:19:38.479Z,5.42
2022-10-04T20:22:29.709Z,5.43
2022-10-04T20:24:59.532Z,5.47
2022-10-04T20:28:04.057Z,5.44
2022-10-04T20:30:52.502Z,5.46
2022-10-04T20:33:50.789Z,5.52
2022-10-04T20:36:51.219Z,5.45
2022-10-04T20:40:01.508Z,5.36
2022-10-04T20:42:37.517Z,5.27
2022-10-04T20:45:28.246Z,5.21
2022-10-04T20:47:58.389Z,5.13
2022-10-04T20:50:36.297Z,5.11
2022-10-04T20:53:07.372Z,5.08
2022-10-04T20:55:37.039Z,5.12
2022-10-04T20:58:19.039Z,5.01
2022-10-04T21:00:53.241Z,5.04
2022-10-04T21:03:21.933Z,5.01
2022-10-04T21:06:06.622Z,5.07
2022-10-04T21:08:34.869Z,5.13
2022-10-04T21:11:14.313Z,5.15
2022-10-04T21:13:53.801Z,5.14
2022-10-04T21:16:43.173Z,5.12
2022-10-04T21:19:31.239Z,5.01
2022-10-04T21:22:01.599Z,4.92
2022-10-04T21:24:36.100Z,4.88
2022-10-04T21:27:04.739Z,4.73
2022-10-04T21:29:33.071Z,4.81
2022-10-04T21:32:01.946Z,4.76
2022-10-04T21:34:51.849Z,4.73
2022-10-04T21:37:19.913Z,4.67
2022-10-04T21:39:48.169Z,4.67
2022-10-04T21:42:16.310Z,4.68
2022-10-04T21:44:44.871Z,4.70
2022-10-04T21:47:13.688Z,4.56
2022-10-04T21:49:41.901Z,4.58
2022-10-04T21:52:10.327Z,4.64
2022-10-04T21:54:40.022Z,4.57
2022-10-04T21:57:08.189Z,4.48
2022-10-04T21:59:36.347Z,4.43
2022-10-04T22:02:05.085Z,4.50
2022-10-04T22:04:33.229Z,4.56
2022-10-04T22:07:01.430Z,4.54
2022-10-04T22:09:30.239Z,4.43
2022-10-04T22:11:59.914Z,4.45
2022-10-04T22:14:28.149Z,4.42
2022-10-04T22:16:56.423Z,4.39
2022-10-04T22:19:25.468Z,4.33
2022-10-04T22:21:53.687Z,4.39
2022-10-04T22:24:22.531Z,4.34
2022-10-04T22:26:50.764Z,4.30
2022-10-04T22:29:20.394Z,4.27
2022-10-04T22:31:51.789Z,4.28
2022-10-04T22:34:23.106Z,4.22
2022-10-04T22:36:53.240Z,4.24
2022-10-04T22:39:22.119Z,4.28
2022-10-04T22:41:54.299Z,4.35
2022-10-04T22:44:25.509Z,4.33
2022-10-04T22:46:55.812Z,4.46
2022-10-04T22:49:25.962Z,4.48
2022-10-04T22:51:56.400Z,4.44
2022-10-04T22:54:26.709Z,4.38
2022-10-04T22:56:55.409Z,4.34
2022-10-04T22:59:32.600Z,4.25
2022-10-04T23:02:01.002Z,4.12
2022-10-04T23:04:29.520Z,4.17
2022-10-04T23:06:57.789Z,4.14
2022-10-04T23:09:26.137Z,4.08
2022-10-04T23:11:54.431Z,4.04
2022-10-04T23:14:22.609Z,4.03
2022-10-04T23:16:52.242Z,4.02
2022-10-04T23:19:21.422Z,4.01
2022-10-04T23:21:51.092Z,3.99
2022-10-04T23:24:20.876Z,3.99
2022-10-04T23:26:50.989Z,3.98
2022-10-04T23:29:22.388Z,3.98
2022-10-04T23:31:52.829Z,3.89
2022-10-04T23:34:25.110Z,3.98
2022-10-04T23:36:53.349Z,3.96
2022-10-04T23:39:28.708Z,3.95
2022-10-04T23:41:57.262Z,3.91
2022-10-04T23:44:26.802Z,3.89
2022-10-04T23:46:56.420Z,3.83
2022-10-04T23:49:24.708Z,3.82
2022-10-04T23:51:58.017Z,3.83
2022-10-04T23:54:26.729Z,3.81
2022-10-04T23:56:55.029Z,3.87
2022-10-04T23:59:25.467Z,3.86
